Anaheim Hills, California
Current Conditions -  °F | °C
As of 5:17 AM on Wednesday 22 Oct 2014 (Local Time) from KAJO Reporting Station
Moderate Fog Moderate Fog  
Wind Chill:   Ceiling: Unl
Heat Index:   Visibility: 0.5mi
Dew Point:   Wind: 0mph
Humidity: 100%   Direction: NA
Pressure: 29.9"   Gusts: NA
Location:  33.8431°N, 117.777°W
Report Text: KAJO 221217Z AUTO 00000KT 1/2SM FG CLR 08/08 A2990 RMK AO2 $
Loading
Personal Weather Stations






























Interactive Weather Map
Tropical Storm Tracking
New forecast layout! Learn more

10-Day Weather Forecast

Advertisements
Track Severe Weather on mobile